Time,TemperatureF,DewpointF,PressureIn,WindDirection,WindDirectionDegrees,WindSpeedMPH,WindSpeedGustMPH,Humidity,HourlyPrecipIn,Conditions,Clouds,dailyrainin,SolarRadiationWatts/m^2,SoftwareType,DateUTC
2013-05-27 00:10:00,41.0,37.0,30.07,NW,321,0.0,8.0,84,0.00,,,0.00,0,weatherlink.com 1.10,2013-05-27 04:10:00,
2013-05-27 00:25:00,40.5,36.0,30.08,WNW,285,0.0,10.0,85,0.00,,,0.00,0,weatherlink.com 1.10,2013-05-27 04:25:00,
2013-05-27 00:40:00,40.6,37.0,30.08,WNW,290,2.0,10.0,85,0.00,,,0.00,0,weatherlink.com 1.10,2013-05-27 04:40:00,
2013-05-27 00:55:00,40.6,37.0,30.08,NNW,331,9.0,10.0,86,0.00,,,0.00,0,weatherlink.com 1.10,2013-05-27 04:55:00,
2013-05-27 01:10:00,40.4,37.0,30.08,WNW,288,1.0,10.0,86,0.00,,,0.00,0,weatherlink.com 1.10,2013-05-27 05:10:00,
2013-05-27 01:25:00,40.3,36.0,30.08,WSW,258,1.0,8.0,85,0.00,,,0.00,0,weatherlink.com 1.10,2013-05-27 05:25:00,
2013-05-27 01:40:00,40.4,36.0,30.07,SW,235,0.0,10.0,84,0.00,,,0.00,0,weatherlink.com 1.10,2013-05-27 05:40:00,
2013-05-27 01:55:00,40.2,36.0,30.07,SW,219,0.0,7.0,85,0.00,,,0.00,0,weatherlink.com 1.10,2013-05-27 05:55:00,
2013-05-27 02:10:00,40.3,36.0,30.07,West,265,0.0,9.0,84,0.00,,,0.00,0,weatherlink.com 1.10,2013-05-27 06:10:00,
2013-05-27 02:25:00,40.4,36.0,30.08,South,190,3.0,10.0,84,0.00,,,0.00,0,weatherlink.com 1.10,2013-05-27 06:25:00,
2013-05-27 02:40:00,40.2,36.0,30.08,WNW,300,2.0,10.0,84,0.00,,,0.00,0,weatherlink.com 1.10,2013-05-27 06:40:00,
2013-05-27 02:55:00,39.9,36.0,30.08,South,174,0.0,10.0,84,0.00,,,0.00,0,weatherlink.com 1.10,2013-05-27 06:55:00,
2013-05-27 03:10:00,39.6,35.0,30.08,NNE,32,1.0,7.0,84,0.00,,,0.00,0,weatherlink.com 1.10,2013-05-27 07:10:00,
2013-05-27 03:25:00,39.3,35.0,30.08,SSE,156,1.0,8.0,85,0.00,,,0.00,0,weatherlink.com 1.10,2013-05-27 07:25:00,
2013-05-27 03:40:00,39.2,35.0,30.09,SW,225,3.0,7.0,85,0.00,,,0.00,0,weatherlink.com 1.10,2013-05-27 07:40:00,
2013-05-27 03:55:00,39.3,35.0,30.09,West,275,2.0,9.0,85,0.00,,,0.00,0,weatherlink.com 1.10,2013-05-27 07:55:00,
2013-05-27 04:10:00,39.1,35.0,30.09,West,263,0.0,11.0,86,0.00,,,0.00,0,weatherlink.com 1.10,2013-05-27 08:10:00,
2013-05-27 04:25:00,39.0,35.0,30.09,NE,55,5.0,9.0,86,0.00,,,0.00,0,weatherlink.com 1.10,2013-05-27 08:25:00,
2013-05-27 04:40:00,39.0,35.0,30.10,NW,306,2.0,7.0,86,0.00,,,0.00,0,weatherlink.com 1.10,2013-05-27 08:40:00,
2013-05-27 04:55:00,38.9,35.0,30.10,WNW,289,0.0,6.0,86,0.00,,,0.00,0,weatherlink.com 1.10,2013-05-27 08:55:00,
2013-05-27 05:10:00,38.7,35.0,30.10,WNW,290,2.0,7.0,87,0.00,,,0.00,0,weatherlink.com 1.10,2013-05-27 09:10:00,
2013-05-27 05:25:00,38.6,35.0,30.11,West,264,2.0,7.0,87,0.00,,,0.00,5,weatherlink.com 1.10,2013-05-27 09:25:00,
2013-05-27 05:40:00,38.6,35.0,30.11,West,262,0.0,9.0,87,0.00,,,0.00,14,weatherlink.com 1.10,2013-05-27 09:40:00,
2013-05-27 05:55:00,39.3,36.0,30.12,North,9,0.0,8.0,87,0.00,,,0.00,21,weatherlink.com 1.10,2013-05-27 09:55:00,
2013-05-27 06:11:00,40.0,36.0,30.12,SW,235,0.0,11.0,85,0.00,,,0.00,49,weatherlink.com 1.10,2013-05-27 10:11:00,
2013-05-27 06:25:00,40.6,37.0,30.12,West,261,0.0,12.0,85,0.00,,,0.00,114,weatherlink.com 1.10,2013-05-27 10:25:00,
2013-05-27 06:41:00,41.4,37.0,30.13,SW,232,0.0,7.0,84,0.00,,,0.00,169,weatherlink.com 1.10,2013-05-27 10:41:00,
2013-05-27 06:56:00,42.2,37.0,30.12,WNW,298,0.0,6.0,83,0.00,,,0.00,221,weatherlink.com 1.10,2013-05-27 10:56:00,
2013-05-27 07:11:00,43.1,37.0,30.12,NNE,14,1.0,7.0,80,0.00,,,0.00,271,weatherlink.com 1.10,2013-05-27 11:11:00,
2013-05-27 07:26:00,44.8,38.0,30.12,East,81,1.0,6.0,77,0.00,,,0.00,318,weatherlink.com 1.10,2013-05-27 11:26:00,
2013-05-27 07:41:00,46.7,37.0,30.13,SW,236,0.0,7.0,70,0.00,,,0.00,369,weatherlink.com 1.10,2013-05-27 11:41:00,
2013-05-27 07:56:00,48.2,36.0,30.13,NW,309,3.0,8.0,62,0.00,,,0.00,417,weatherlink.com 1.10,2013-05-27 11:56:00,
2013-05-27 08:12:00,49.4,34.0,30.13,NW,304,1.0,10.0,55,0.00,,,0.00,471,weatherlink.com 1.10,2013-05-27 12:12:00,
2013-05-27 08:27:00,50.7,36.0,30.13,NW,312,9.0,16.0,57,0.00,,,0.00,520,weatherlink.com 1.10,2013-05-27 12:27:00,
2013-05-27 08:42:00,51.2,34.0,30.13,NW,316,7.0,16.0,53,0.00,,,0.00,564,weatherlink.com 1.10,2013-05-27 12:42:00,
2013-05-27 08:57:00,52.0,37.0,30.13,WNW,299,6.0,14.0,58,0.00,,,0.00,615,weatherlink.com 1.10,2013-05-27 12:57:00,
2013-05-27 09:12:00,52.6,37.0,30.13,NW,321,3.0,11.0,55,0.00,,,0.00,659,weatherlink.com 1.10,2013-05-27 13:12:00,
2013-05-27 09:28:00,53.9,36.0,30.13,WNW,296,4.0,15.0,52,0.00,,,0.00,708,weatherlink.com 1.10,2013-05-27 13:28:00,
2013-05-27 09:43:00,53.3,37.0,30.13,SW,226,1.0,18.0,54,0.00,,,0.00,749,weatherlink.com 1.10,2013-05-27 13:43:00,
2013-05-27 09:58:00,53.6,35.0,30.13,WNW,292,5.0,15.0,49,0.00,,,0.00,789,weatherlink.com 1.10,2013-05-27 13:58:00,
2013-05-27 10:13:00,53.7,33.0,30.13,WNW,292,9.0,19.0,46,0.00,,,0.00,823,weatherlink.com 1.10,2013-05-27 14:13:00,
2013-05-27 10:28:00,53.6,34.0,30.13,WNW,285,2.0,16.0,48,0.00,,,0.00,853,weatherlink.com 1.10,2013-05-27 14:28:00,
2013-05-27 10:43:00,54.8,35.0,30.14,NNW,344,9.0,15.0,48,0.00,,,0.00,888,weatherlink.com 1.10,2013-05-27 14:43:00,
2013-05-27 10:59:00,54.0,33.0,30.14,NW,309,9.0,21.0,46,0.00,,,0.00,911,weatherlink.com 1.10,2013-05-27 14:59:00,
2013-05-27 11:14:00,54.5,35.0,30.14,NW,326,5.0,16.0,48,0.00,,,0.00,935,weatherlink.com 1.10,2013-05-27 15:14:00,
2013-05-27 11:29:00,54.5,33.0,30.14,NW,319,9.0,24.0,45,0.00,,,0.00,958,weatherlink.com 1.10,2013-05-27 15:29:00,
2013-05-27 11:44:00,54.8,37.0,30.14,WNW,284,3.0,18.0,52,0.00,,,0.00,970,weatherlink.com 1.10,2013-05-27 15:44:00,
2013-05-27 11:59:00,55.8,36.0,30.13,NW,311,12.0,13.0,47,0.00,,,0.00,986,weatherlink.com 1.10,2013-05-27 15:59:00,
2013-05-27 12:16:00,55.6,37.0,30.13,NW,317,7.0,18.0,50,0.00,,,0.00,1000,weatherlink.com 1.10,2013-05-27 16:16:00,
2013-05-27 12:31:00,56.6,37.0,30.13,NW,324,1.0,13.0,49,0.00,,,0.00,1007,weatherlink.com 1.10,2013-05-27 16:31:00,
2013-05-27 12:46:00,56.5,35.0,30.12,WNW,284,10.0,18.0,45,0.00,,,0.00,1011,weatherlink.com 1.10,2013-05-27 16:46:00,
2013-05-27 13:01:00,57.5,38.0,30.12,WNW,292,0.0,16.0,48,0.00,,,0.00,1007,weatherlink.com 1.10,2013-05-27 17:01:00,
2013-05-27 13:16:00,58.0,38.0,30.11,WNW,297,3.0,14.0,47,0.00,,,0.00,1014,weatherlink.com 1.10,2013-05-27 17:16:00,
2013-05-27 13:31:00,59.1,38.0,30.11,West,267,3.0,7.0,46,0.00,,,0.00,1007,weatherlink.com 1.10,2013-05-27 17:31:00,
2013-05-27 13:46:00,58.9,38.0,30.11,SSW,203,6.0,18.0,46,0.00,,,0.00,1000,weatherlink.com 1.10,2013-05-27 17:46:00,
2013-05-27 14:01:00,59.3,36.0,30.11,NNW,344,6.0,15.0,42,0.00,,,0.00,986,weatherlink.com 1.10,2013-05-27 18:01:00,
2013-05-27 14:16:00,59.0,39.0,30.10,SW,221,4.0,14.0,47,0.00,,,0.00,977,weatherlink.com 1.10,2013-05-27 18:16:00,
2013-05-27 14:31:00,59.6,36.0,30.09,West,265,1.0,11.0,42,0.00,,,0.00,953,weatherlink.com 1.10,2013-05-27 18:31:00,
2013-05-27 14:46:00,60.0,38.0,30.09,WNW,303,6.0,14.0,44,0.00,,,0.00,926,weatherlink.com 1.10,2013-05-27 18:46:00,
2013-05-27 15:02:00,61.2,40.0,30.09,NW,315,0.0,15.0,45,0.00,,,0.00,911,weatherlink.com 1.10,2013-05-27 19:02:00,
2013-05-27 15:17:00,61.7,39.0,30.09,SW,229,2.0,13.0,43,0.00,,,0.00,860,weatherlink.com 1.10,2013-05-27 19:17:00,
2013-05-27 15:32:00,61.6,40.0,30.09,NW,324,1.0,11.0,45,0.00,,,0.00,812,weatherlink.com 1.10,2013-05-27 19:32:00,
2013-05-27 15:47:00,61.6,37.0,30.09,WSW,245,2.0,14.0,41,0.00,,,0.00,779,weatherlink.com 1.10,2013-05-27 19:47:00,
2013-05-27 16:02:00,61.3,38.0,30.09,South,169,0.0,10.0,42,0.00,,,0.00,731,weatherlink.com 1.10,2013-05-27 20:02:00,
2013-05-27 16:17:00,61.6,39.0,30.09,WNW,294,4.0,12.0,44,0.00,,,0.00,691,weatherlink.com 1.10,2013-05-27 20:17:00,
2013-05-27 16:32:00,62.0,38.0,30.08,SSE,166,4.0,9.0,42,0.00,,,0.00,649,weatherlink.com 1.10,2013-05-27 20:32:00,
2013-05-27 16:48:00,61.9,40.0,30.08,WNW,294,2.0,14.0,44,0.00,,,0.00,598,weatherlink.com 1.10,2013-05-27 20:48:00,
2013-05-27 17:03:00,61.8,38.0,30.07,NW,309,8.0,8.0,42,0.00,,,0.00,552,weatherlink.com 1.10,2013-05-27 21:03:00,
2013-05-27 17:18:00,62.3,40.0,30.08,WNW,298,2.0,10.0,44,0.00,,,0.00,499,weatherlink.com 1.10,2013-05-27 21:18:00,
2013-05-27 17:33:00,61.7,40.0,30.08,South,175,0.0,8.0,45,0.00,,,0.00,446,weatherlink.com 1.10,2013-05-27 21:33:00,
2013-05-27 17:48:00,61.3,40.0,30.08,WSW,239,4.0,11.0,45,0.00,,,0.00,399,weatherlink.com 1.10,2013-05-27 21:48:00,
2013-05-27 18:03:00,61.4,41.0,30.08,SW,233,0.0,9.0,48,0.00,,,0.00,346,weatherlink.com 1.10,2013-05-27 22:03:00,
2013-05-27 18:19:00,60.1,40.0,30.08,NW,325,0.0,9.0,48,0.00,,,0.00,295,weatherlink.com 1.10,2013-05-27 22:19:00,
2013-05-27 18:33:00,59.0,42.0,30.08,NW,308,0.0,11.0,53,0.00,,,0.00,62,weatherlink.com 1.10,2013-05-27 22:33:00,
2013-05-27 18:49:00,57.8,40.0,30.09,South,186,0.0,7.0,51,0.00,,,0.00,35,weatherlink.com 1.10,2013-05-27 22:49:00,
2013-05-27 19:03:00,57.5,40.0,30.09,WNW,286,0.0,10.0,52,0.00,,,0.00,28,weatherlink.com 1.10,2013-05-27 23:03:00,
2013-05-27 19:19:00,56.8,40.0,30.09,WNW,298,7.0,15.0,53,0.00,,,0.00,25,weatherlink.com 1.10,2013-05-27 23:19:00,
2013-05-27 19:34:00,56.0,40.0,30.10,West,275,0.0,7.0,55,0.00,,,0.00,19,weatherlink.com 1.10,2013-05-27 23:34:00,
2013-05-27 19:49:00,55.3,40.0,30.10,West,275,0.0,5.0,56,0.00,,,0.00,14,weatherlink.com 1.10,2013-05-27 23:49:00,
2013-05-27 20:04:00,54.7,39.0,30.10,SSW,202,4.0,9.0,55,0.00,,,0.00,9,weatherlink.com 1.10,2013-05-28 00:04:00,
2013-05-27 20:19:00,54.3,38.0,30.10,West,261,0.0,10.0,54,0.00,,,0.00,0,weatherlink.com 1.10,2013-05-28 00:19:00,
2013-05-27 20:34:00,53.5,39.0,30.11,SW,226,0.0,10.0,59,0.00,,,0.00,0,weatherlink.com 1.10,2013-05-28 00:34:00,
2013-05-27 20:50:00,53.0,38.0,30.11,WNW,303,0.0,6.0,58,0.00,,,0.00,0,weatherlink.com 1.10,2013-05-28 00:50:00,
2013-05-27 21:04:00,53.2,36.0,30.11,SE,126,0.0,10.0,52,0.00,,,0.00,0,weatherlink.com 1.10,2013-05-28 01:04:00,
2013-05-27 21:19:00,52.8,36.0,30.11,SSW,206,1.0,10.0,54,0.00,,,0.00,0,weatherlink.com 1.10,2013-05-28 01:19:00,
2013-05-27 21:34:00,52.2,36.0,30.11,WSW,253,0.0,7.0,54,0.00,,,0.00,0,weatherlink.com 1.10,2013-05-28 01:34:00,
2013-05-27 21:49:00,52.0,36.0,30.12,WSW,257,0.0,4.0,55,0.00,,,0.00,0,weatherlink.com 1.10,2013-05-28 01:49:00,
2013-05-27 22:04:00,51.3,35.0,30.12,West,271,0.0,4.0,55,0.00,,,0.00,0,weatherlink.com 1.10,2013-05-28 02:04:00,
2013-05-27 22:19:00,50.6,35.0,30.12,SW,235,0.0,5.0,55,0.00,,,0.00,0,weatherlink.com 1.10,2013-05-28 02:19:00,
2013-05-27 22:34:00,50.0,37.0,30.12,NW,323,0.0,7.0,62,0.00,,,0.00,0,weatherlink.com 1.10,2013-05-28 02:34:00,
2013-05-27 22:49:00,49.2,34.0,30.13,NW,325,0.0,6.0,57,0.00,,,0.00,0,weatherlink.com 1.10,2013-05-28 02:49:00,
2013-05-27 23:04:00,48.9,34.0,30.13,North,5,0.0,5.0,58,0.00,,,0.00,0,weatherlink.com 1.10,2013-05-28 03:04:00,
2013-05-27 23:20:00,48.5,35.0,30.14,North,5,0.0,1.0,60,0.00,,,0.00,0,weatherlink.com 1.10,2013-05-28 03:20:00,
2013-05-27 23:35:00,47.7,35.0,30.14,North,9,0.0,1.0,62,0.00,,,0.00,0,weatherlink.com 1.10,2013-05-28 03:35:00,
2013-05-27 23:50:00,46.9,35.0,30.14,North,360,0.0,1.0,64,0.00,,,0.00,0,weatherlink.com 1.10,2013-05-28 03:50:00,